sensor_id;sensor_type;location;lat;lon;timestamp;pressure;altitude;pressure_sealevel;temperature;humidity
61908;BME280;47864;52.526;19.672;2023-05-25T00:00:05;152579.25;;;14.29;100.00
61908;BME280;47864;52.526;19.672;2023-05-25T00:02:06;152576.72;;;14.28;100.00
61908;BME280;47864;52.526;19.672;2023-05-25T00:04:08;152569.09;;;14.25;100.00
61908;BME280;47864;52.526;19.672;2023-05-25T00:06:10;152517.16;;;14.04;100.00
61908;BME280;47864;52.526;19.672;2023-05-25T00:08:12;152556.44;;;14.20;100.00
61908;BME280;47864;52.526;19.672;2023-05-25T00:10:13;152585.63;;;14.31;100.00
61908;BME280;47864;52.526;19.672;2023-05-25T00:12:15;152578.00;;;14.28;100.00
61908;BME280;47864;52.526;19.672;2023-05-25T00:14:17;152522.25;;;14.06;100.00
61908;BME280;47864;52.526;19.672;2023-05-25T00:16:19;152565.34;;;14.23;100.00
61908;BME280;47864;52.526;19.672;2023-05-25T00:18:21;152572.91;;;14.26;100.00
61908;BME280;47864;52.526;19.672;2023-05-25T00:20:22;152575.44;;;14.27;100.00
61908;BME280;47864;52.526;19.672;2023-05-25T00:22:24;152543.78;;;14.15;100.00
61908;BME280;47864;52.526;19.672;2023-05-25T00:24:25;152580.53;;;14.29;100.00
61908;BME280;47864;52.526;19.672;2023-05-25T00:26:27;152586.88;;;14.32;100.00
61908;BME280;47864;52.526;19.672;2023-05-25T00:28:28;152598.28;;;14.36;100.00
61908;BME280;47864;52.526;19.672;2023-05-25T00:30:30;152593.19;;;14.34;100.00
61908;BME280;47864;52.526;19.672;2023-05-25T00:32:32;152564.06;;;14.23;100.00
61908;BME280;47864;52.526;19.672;2023-05-25T00:34:33;152599.53;;;14.37;100.00
61908;BME280;47864;52.526;19.672;2023-05-25T00:36:35;152553.91;;;14.19;100.00
61908;BME280;47864;52.526;19.672;2023-05-25T00:38:36;152614.78;;;14.43;100.00
61908;BME280;47864;52.526;19.672;2023-05-25T00:40:39;152624.94;;;14.47;100.00
61908;BME280;47864;52.526;19.672;2023-05-25T00:42:42;152576.72;;;14.28;100.00
61908;BME280;47864;52.526;19.672;2023-05-25T00:44:44;152505.78;;;13.99;100.00
61908;BME280;47864;52.526;19.672;2023-05-25T00:46:50;152604.66;;;14.39;100.00
61908;BME280;47864;52.526;19.672;2023-05-25T00:48:53;152545.06;;;14.15;100.00
61908;BME280;47864;52.526;19.672;2023-05-25T00:50:55;152541.25;;;14.14;100.00
61908;BME280;47864;52.526;19.672;2023-05-25T00:52:57;152541.25;;;14.14;100.00
61908;BME280;47864;52.526;19.672;2023-05-25T00:54:59;152561.53;;;14.22;100.00
61908;BME280;47864;52.526;19.672;2023-05-25T00:57:03;152561.53;;;14.22;100.00
61908;BME280;47864;52.526;19.672;2023-05-25T00:59:08;152560.25;;;14.21;100.00
61908;BME280;47864;52.526;19.672;2023-05-25T01:01:14;152564.06;;;14.23;100.00
61908;BME280;47864;52.526;19.672;2023-05-25T01:03:18;152584.34;;;14.31;100.00
61908;BME280;47864;52.526;19.672;2023-05-25T01:05:24;152565.34;;;14.23;100.00
61908;BME280;47864;52.526;19.672;2023-05-25T01:07:26;152574.19;;;14.27;100.00
61908;BME280;47864;52.526;19.672;2023-05-25T01:09:28;152551.34;;;14.18;100.00
61908;BME280;47864;52.526;19.672;2023-05-25T01:11:35;152517.16;;;14.04;100.00
61908;BME280;47864;52.526;19.672;2023-05-25T01:13:37;152551.34;;;14.18;100.00
61908;BME280;47864;52.526;19.672;2023-05-25T01:15:39;152542.53;;;14.14;100.00
61908;BME280;47864;52.526;19.672;2023-05-25T01:17:41;152522.25;;;14.06;100.00
61908;BME280;47864;52.526;19.672;2023-05-25T01:19:43;152569.09;;;14.25;100.00
61908;BME280;47864;52.526;19.672;2023-05-25T01:24:21;152578.00;;;14.28;100.00
61908;BME280;47864;52.526;19.672;2023-05-25T01:26:28;152504.50;;;13.99;100.00
61908;BME280;47864;52.526;19.672;2023-05-25T01:28:37;152509.53;;;14.01;100.00
61908;BME280;47864;52.526;19.672;2023-05-25T01:30:44;152531.09;;;14.09;100.00
61908;BME280;47864;52.526;19.672;2023-05-25T01:32:47;152488.00;;;13.92;100.00
61908;BME280;47864;52.526;19.672;2023-05-25T01:34:49;152529.81;;;14.09;100.00
61908;BME280;47864;52.526;19.672;2023-05-25T01:36:52;152519.69;;;14.05;100.00
61908;BME280;47864;52.526;19.672;2023-05-25T01:38:54;152507.03;;;14.00;100.00
61908;BME280;47864;52.526;19.672;2023-05-25T01:40:55;152517.16;;;14.04;100.00
61908;BME280;47864;52.526;19.672;2023-05-25T01:42:57;152518.44;;;14.04;100.00
61908;BME280;47864;52.526;19.672;2023-05-25T01:44:59;152496.88;;;13.96;100.00
61908;BME280;47864;52.526;19.672;2023-05-25T01:51:52;152552.63;;;14.18;100.00
61908;BME280;47864;52.526;19.672;2023-05-25T01:54:00;152558.97;;;14.21;100.00
61908;BME280;47864;52.526;19.672;2023-05-25T01:56:08;152553.91;;;14.19;100.00
61908;BME280;47864;52.526;19.672;2023-05-25T01:58:12;152564.06;;;14.23;100.00
61908;BME280;47864;52.526;19.672;2023-05-25T02:00:16;152543.78;;;14.15;100.00
61908;BME280;47864;52.526;19.672;2023-05-25T02:02:19;152532.34;;;14.10;100.00
61908;BME280;47864;52.526;19.672;2023-05-25T02:04:21;152470.25;;;13.85;100.00
61908;BME280;47864;52.526;19.672;2023-05-25T02:06:23;152498.16;;;13.96;100.00
61908;BME280;47864;52.526;19.672;2023-05-25T02:08:24;152501.97;;;13.98;100.00
61908;BME280;47864;52.526;19.672;2023-05-25T02:10:26;152527.31;;;14.08;100.00
61908;BME280;47864;52.526;19.672;2023-05-25T02:12:27;152519.69;;;14.05;100.00
61908;BME280;47864;52.526;19.672;2023-05-25T02:14:29;152505.78;;;13.99;100.00
61908;BME280;47864;52.526;19.672;2023-05-25T02:16:31;152484.22;;;13.91;100.00
61908;BME280;47864;52.526;19.672;2023-05-25T02:18:33;152504.50;;;13.99;100.00
61908;BME280;47864;52.526;19.672;2023-05-25T02:20:35;152518.44;;;14.04;100.00
61908;BME280;47864;52.526;19.672;2023-05-25T02:22:37;152461.41;;;13.82;100.00
61908;BME280;47864;52.526;19.672;2023-05-25T02:24:38;152517.16;;;14.04;100.00
61908;BME280;47864;52.526;19.672;2023-05-25T02:26:40;152481.69;;;13.90;100.00
61908;BME280;47864;52.526;19.672;2023-05-25T02:28:42;152439.88;;;13.73;100.00
61908;BME280;47864;52.526;19.672;2023-05-25T02:30:43;152537.44;;;14.12;100.00
61908;BME280;47864;52.526;19.672;2023-05-25T02:32:45;152501.97;;;13.98;100.00
61908;BME280;47864;52.526;19.672;2023-05-25T02:34:46;152499.44;;;13.97;100.00
61908;BME280;47864;52.526;19.672;2023-05-25T02:36:48;152476.63;;;13.88;100.00
61908;BME280;47864;52.526;19.672;2023-05-25T02:38:49;152533.63;;;14.10;100.00
61908;BME280;47864;52.526;19.672;2023-05-25T02:40:51;152474.06;;;13.87;100.00
61908;BME280;47864;52.526;19.672;2023-05-25T02:42:53;152529.81;;;14.09;100.00
61908;BME280;47864;52.526;19.672;2023-05-25T02:44:55;152488.00;;;13.92;100.00
61908;BME280;47864;52.526;19.672;2023-05-25T02:46:56;152514.63;;;14.03;100.00
61908;BME280;47864;52.526;19.672;2023-05-25T02:48:58;152545.06;;;14.15;100.00
61908;BME280;47864;52.526;19.672;2023-05-25T02:51:00;152495.63;;;13.95;100.00
61908;BME280;47864;52.526;19.672;2023-05-25T02:53:02;152507.03;;;14.00;100.00
61908;BME280;47864;52.526;19.672;2023-05-25T02:55:04;152518.44;;;14.04;100.00
61908;BME280;47864;52.526;19.672;2023-05-25T02:57:06;152505.78;;;13.99;100.00
61908;BME280;47864;52.526;19.672;2023-05-25T02:59:07;152486.72;;;13.92;100.00
61908;BME280;47864;52.526;19.672;2023-05-25T03:01:09;152470.25;;;13.85;100.00
61908;BME280;47864;52.526;19.672;2023-05-25T03:03:11;152490.53;;;13.93;100.00
61908;BME280;47864;52.526;19.672;2023-05-25T03:05:14;152523.50;;;14.06;100.00
61908;BME280;47864;52.526;19.672;2023-05-25T03:07:16;152526.06;;;14.07;100.00
61908;BME280;47864;52.526;19.672;2023-05-25T03:09:17;152510.81;;;14.01;100.00
61908;BME280;47864;52.526;19.672;2023-05-25T03:11:19;152501.97;;;13.98;100.00
61908;BME280;47864;52.526;19.672;2023-05-25T03:13:21;152443.69;;;13.75;100.00
61908;BME280;47864;52.526;19.672;2023-05-25T03:15:22;152484.22;;;13.91;100.00
61908;BME280;47864;52.526;19.672;2023-05-25T03:17:24;152546.31;;;14.16;100.00
61908;BME280;47864;52.526;19.672;2023-05-25T03:19:25;152533.63;;;14.10;100.00
61908;BME280;47864;52.526;19.672;2023-05-25T03:21:27;152528.53;;;14.08;100.00
61908;BME280;47864;52.526;19.672;2023-05-25T03:23:29;152537.44;;;14.12;100.00
61908;BME280;47864;52.526;19.672;2023-05-25T03:25:30;152505.78;;;13.99;100.00
61908;BME280;47864;52.526;19.672;2023-05-25T03:27:32;152527.31;;;14.08;100.00
61908;BME280;47864;52.526;19.672;2023-05-25T03:29:33;152512.09;;;14.02;100.00
61908;BME280;47864;52.526;19.672;2023-05-25T03:31:35;152552.63;;;14.18;100.00
61908;BME280;47864;52.526;19.672;2023-05-25T03:33:37;152542.53;;;14.14;100.00
61908;BME280;47864;52.526;19.672;2023-05-25T03:35:38;152531.09;;;14.09;100.00
61908;BME280;47864;52.526;19.672;2023-05-25T03:37:40;152548.81;;;14.17;100.00
61908;BME280;47864;52.526;19.672;2023-05-25T03:39:42;152531.09;;;14.09;100.00
61908;BME280;47864;52.526;19.672;2023-05-25T03:41:43;152560.25;;;14.21;100.00
61908;BME280;47864;52.526;19.672;2023-05-25T03:43:45;152589.41;;;14.33;100.00
61908;BME280;47864;52.526;19.672;2023-05-25T03:45:46;152583.06;;;14.30;100.00
61908;BME280;47864;52.526;19.672;2023-05-25T03:47:48;152533.63;;;14.10;100.00
61908;BME280;47864;52.526;19.672;2023-05-25T03:49:49;152593.19;;;14.34;100.00
61908;BME280;47864;52.526;19.672;2023-05-25T03:51:51;152607.22;;;14.40;100.00
61908;BME280;47864;52.526;19.672;2023-05-25T03:53:53;152583.06;;;14.30;100.00
61908;BME280;47864;52.526;19.672;2023-05-25T03:55:54;152619.88;;;14.45;100.00
61908;BME280;47864;52.526;19.672;2023-05-25T03:57:56;152594.47;;;14.35;100.00
61908;BME280;47864;52.526;19.672;2023-05-25T03:59:57;152523.50;;;14.06;100.00
61908;BME280;47864;52.526;19.672;2023-05-25T04:01:59;152518.44;;;14.04;100.00
61908;BME280;47864;52.526;19.672;2023-05-25T04:04:00;152586.88;;;14.32;100.00
61908;BME280;47864;52.526;19.672;2023-05-25T04:06:02;152532.34;;;14.10;100.00
61908;BME280;47864;52.526;19.672;2023-05-25T04:08:04;152598.28;;;14.36;100.00
61908;BME280;47864;52.526;19.672;2023-05-25T04:10:06;152624.94;;;14.47;100.00
61908;BME280;47864;52.526;19.672;2023-05-25T04:12:08;152671.88;;;14.66;100.00
61908;BME280;47864;52.526;19.672;2023-05-25T04:14:09;152584.34;;;14.31;100.00
61908;BME280;47864;52.526;19.672;2023-05-25T04:16:11;152583.06;;;14.30;100.00
61908;BME280;47864;52.526;19.672;2023-05-25T04:18:13;152630.03;;;14.49;100.00
61908;BME280;47864;52.526;19.672;2023-05-25T04:20:15;152619.88;;;14.45;100.00
61908;BME280;47864;52.526;19.672;2023-05-25T04:22:17;152631.25;;;14.50;100.00
61908;BME280;47864;52.526;19.672;2023-05-25T04:24:20;152584.34;;;14.31;100.00
61908;BME280;47864;52.526;19.672;2023-05-25T04:26:21;152618.59;;;14.44;100.00
61908;BME280;47864;52.526;19.672;2023-05-25T04:28:23;152604.66;;;14.39;100.00
61908;BME280;47864;52.526;19.672;2023-05-25T04:30:24;152597.00;;;14.36;100.00
61908;BME280;47864;52.526;19.672;2023-05-25T04:32:26;152638.88;;;14.53;100.00
61908;BME280;47864;52.526;19.672;2023-05-25T04:34:28;152668.06;;;14.64;100.00
61908;BME280;47864;52.526;19.672;2023-05-25T04:36:29;152597.00;;;14.36;100.00
61908;BME280;47864;52.526;19.672;2023-05-25T04:38:31;152643.97;;;14.55;100.00
61908;BME280;47864;52.526;19.672;2023-05-25T04:40:33;152641.41;;;14.54;100.00
61908;BME280;47864;52.526;19.672;2023-05-25T04:42:35;152617.34;;;14.44;100.00
61908;BME280;47864;52.526;19.672;2023-05-25T04:44:36;152613.53;;;14.42;100.00
61908;BME280;47864;52.526;19.672;2023-05-25T04:46:38;152591.91;;;14.34;100.00
61908;BME280;47864;52.526;19.672;2023-05-25T04:48:39;152602.09;;;14.38;100.00
61908;BME280;47864;52.526;19.672;2023-05-25T04:50:41;152565.34;;;14.23;100.00
61908;BME280;47864;52.526;19.672;2023-05-25T04:52:43;152608.47;;;14.40;100.00
61908;BME280;47864;52.526;19.672;2023-05-25T04:54:44;152602.09;;;14.38;100.00
61908;BME280;47864;52.526;19.672;2023-05-25T04:56:46;152619.88;;;14.45;100.00
61908;BME280;47864;52.526;19.672;2023-05-25T04:58:48;152652.81;;;14.58;100.00
61908;BME280;47864;52.526;19.672;2023-05-25T05:00:49;152665.50;;;14.63;100.00
61908;BME280;47864;52.526;19.672;2023-05-25T05:02:54;152685.81;;;14.71;100.00
61908;BME280;47864;52.526;19.672;2023-05-25T05:04:56;152642.69;;;14.54;100.00
61908;BME280;47864;52.526;19.672;2023-05-25T05:06:57;152613.53;;;14.42;100.00
61908;BME280;47864;52.526;19.672;2023-05-25T05:08:59;152622.41;;;14.46;100.00
61908;BME280;47864;52.526;19.672;2023-05-25T05:11:01;152569.09;;;14.25;100.00
61908;BME280;47864;52.526;19.672;2023-05-25T05:13:03;152627.50;;;14.48;100.00
61908;BME280;47864;52.526;19.672;2023-05-25T05:15:05;152659.16;;;14.61;100.00
61908;BME280;47864;52.526;19.672;2023-05-25T05:17:06;152631.25;;;14.50;100.00
61908;BME280;47864;52.526;19.672;2023-05-25T05:19:08;152565.34;;;14.23;100.00
61908;BME280;47864;52.526;19.672;2023-05-25T05:21:10;152662.97;;;14.62;100.00
61908;BME280;47864;52.526;19.672;2023-05-25T05:23:12;152695.91;;;14.75;100.00
61908;BME280;47864;52.526;19.672;2023-05-25T05:25:14;152682.00;;;14.70;100.00
61908;BME280;47864;52.526;19.672;2023-05-25T05:27:15;152689.59;;;14.73;100.00
61908;BME280;47864;52.526;19.672;2023-05-25T05:29:17;152665.50;;;14.63;100.00
61908;BME280;47864;52.526;19.672;2023-05-25T05:31:19;152688.34;;;14.72;100.00
61908;BME280;47864;52.526;19.672;2023-05-25T05:33:21;152685.81;;;14.71;100.00
61908;BME280;47864;52.526;19.672;2023-05-25T05:35:23;152630.03;;;14.49;100.00
61908;BME280;47864;52.526;19.672;2023-05-25T05:37:24;152684.53;;;14.71;100.00
61908;BME280;47864;52.526;19.672;2023-05-25T05:39:26;152687.06;;;14.72;100.00
61908;BME280;47864;52.526;19.672;2023-05-25T05:41:28;152642.69;;;14.54;100.00
61908;BME280;47864;52.526;19.672;2023-05-25T05:43:30;152730.19;;;14.89;100.00
61908;BME280;47864;52.526;19.672;2023-05-25T05:45:32;152657.88;;;14.60;100.00
61908;BME280;47864;52.526;19.672;2023-05-25T05:47:33;152754.28;;;14.99;100.00
61908;BME280;47864;52.526;19.672;2023-05-25T05:49:35;152728.91;;;14.89;100.00
61908;BME280;47864;52.526;19.672;2023-05-25T05:51:36;152731.47;;;14.90;100.00
61908;BME280;47864;52.526;19.672;2023-05-25T05:53:38;152751.75;;;14.98;100.00
61908;BME280;47864;52.526;19.672;2023-05-25T05:55:40;152745.38;;;14.95;100.00
61908;BME280;47864;52.526;19.672;2023-05-25T05:57:41;152811.34;;;15.21;100.00
61908;BME280;47864;52.526;19.672;2023-05-25T05:59:43;152853.19;;;15.38;100.00
61908;BME280;47864;52.526;19.672;2023-05-25T06:01:45;152770.75;;;15.05;100.00
61908;BME280;47864;52.526;19.672;2023-05-25T06:03:47;152728.91;;;14.89;100.00
61908;BME280;47864;52.526;19.672;2023-05-25T06:05:49;152792.31;;;15.14;100.00
61908;BME280;47864;52.526;19.672;2023-05-25T06:07:50;152732.72;;;14.90;100.00
61908;BME280;47864;52.526;19.672;2023-05-25T06:09:52;152758.06;;;15.00;100.00
61908;BME280;47864;52.526;19.672;2023-05-25T06:11:53;152732.72;;;14.90;100.00
61908;BME280;47864;52.526;19.672;2023-05-25T06:13:55;152794.88;;;15.15;100.00
61908;BME280;47864;52.526;19.672;2023-05-25T06:15:56;152825.28;;;15.27;100.00
61908;BME280;47864;52.526;19.672;2023-05-25T06:17:58;152829.09;;;15.29;100.00
61908;BME280;47864;52.526;19.672;2023-05-25T06:20:00;152805.00;;;15.19;100.00
61908;BME280;47864;52.526;19.672;2023-05-25T06:22:02;152860.78;;;15.41;100.00
61908;BME280;47864;52.526;19.672;2023-05-25T06:24:04;152903.97;;;15.58;100.00
61908;BME280;47864;52.526;19.672;2023-05-25T06:26:06;152889.97;;;15.53;100.00
61908;BME280;47864;52.526;19.672;2023-05-25T06:28:07;152919.22;;;15.65;100.00
61908;BME280;47864;52.526;19.672;2023-05-25T06:30:09;152901.41;;;15.57;100.00
61908;BME280;47864;52.526;19.672;2023-05-25T06:32:11;152898.94;;;15.56;100.00
61908;BME280;47864;52.526;19.672;2023-05-25T06:34:12;152924.25;;;15.67;100.00
61908;BME280;47864;52.526;19.672;2023-05-25T06:36:14;152966.13;;;15.83;100.00
61908;BME280;47864;52.526;19.672;2023-05-25T06:38:16;152963.59;;;15.82;100.00
61908;BME280;47864;52.526;19.672;2023-05-25T06:40:18;153056.25;;;16.19;100.00
61908;BME280;47864;52.526;19.672;2023-05-25T06:42:19;153120.97;;;16.45;100.00
61908;BME280;47864;52.526;19.672;2023-05-25T06:44:21;153142.56;;;16.54;100.00
61908;BME280;47864;52.526;19.672;2023-05-25T06:46:22;153251.78;;;16.97;100.00
61908;BME280;47864;52.526;19.672;2023-05-25T06:48:24;153320.38;;;17.25;100.00
61908;BME280;47864;52.526;19.672;2023-05-25T06:50:25;153221.31;;;16.85;100.00
61908;BME280;47864;52.526;19.672;2023-05-25T06:52:27;153415.66;;;17.63;100.00
61908;BME280;47864;52.526;19.672;2023-05-25T06:54:28;153554.19;;;18.18;100.00
61908;BME280;47864;52.526;19.672;2023-05-25T06:56:30;153585.94;;;18.31;100.00
61908;BME280;47864;52.526;19.672;2023-05-25T06:58:31;153509.72;;;18.00;100.00
61908;BME280;47864;52.526;19.672;2023-05-25T07:00:33;153513.53;;;18.02;100.00
61908;BME280;47864;52.526;19.672;2023-05-25T07:02:35;153480.47;;;17.88;100.00
61908;BME280;47864;52.526;19.672;2023-05-25T07:04:36;153432.22;;;17.69;100.00
61908;BME280;47864;52.526;19.672;2023-05-25T07:06:38;153524.94;;;18.06;100.00
61908;BME280;47864;52.526;19.672;2023-05-25T07:08:39;153408.00;;;17.60;100.00
61908;BME280;47864;52.526;19.672;2023-05-25T07:10:41;153722.03;;;18.85;100.00
61908;BME280;47864;52.526;19.672;2023-05-25T07:12:43;153757.63;;;18.99;100.00
61908;BME280;47864;52.526;19.672;2023-05-25T07:14:44;153736.00;;;18.90;100.00
61908;BME280;47864;52.526;19.672;2023-05-25T07:16:46;153775.41;;;19.06;100.00
61908;BME280;47864;52.526;19.672;2023-05-25T07:18:47;153938.25;;;19.71;100.00
61908;BME280;47864;52.526;19.672;2023-05-25T07:20:49;154008.25;;;19.99;100.00
61908;BME280;47864;52.526;19.672;2023-05-25T07:22:50;154036.22;;;20.10;98.66
61908;BME280;47864;52.526;19.672;2023-05-25T07:24:52;154068.06;;;20.23;97.52
61908;BME280;47864;52.526;19.672;2023-05-25T07:26:54;154043.88;;;20.13;95.93
61908;BME280;47864;52.526;19.672;2023-05-25T07:28:55;153930.66;;;19.68;100.00
61908;BME280;47864;52.526;19.672;2023-05-25T07:30:57;153943.34;;;19.73;100.00
61908;BME280;47864;52.526;19.672;2023-05-25T07:32:58;153905.22;;;19.58;100.00
61908;BME280;47864;52.526;19.672;2023-05-25T07:35:00;154112.66;;;20.40;98.62
61908;BME280;47864;52.526;19.672;2023-05-25T07:37:02;154310.00;;;21.19;91.49
61908;BME280;47864;52.526;19.672;2023-05-25T07:39:03;154406.81;;;21.57;90.55
61908;BME280;47864;52.526;19.672;2023-05-25T07:41:05;154141.91;;;20.52;94.57
61908;BME280;47864;52.526;19.672;2023-05-25T07:43:07;154160.97;;;20.60;94.61
61908;BME280;47864;52.526;19.672;2023-05-25T07:45:09;154445.03;;;21.73;89.04
61908;BME280;47864;52.526;19.672;2023-05-25T07:47:11;154571.19;;;22.23;81.67
61908;BME280;47864;52.526;19.672;2023-05-25T07:49:13;154567.38;;;22.21;82.15
61908;BME280;47864;52.526;19.672;2023-05-25T07:51:14;154345.63;;;21.33;84.83
61908;BME280;47864;52.526;19.672;2023-05-25T07:53:16;154336.75;;;21.30;86.83
61908;BME280;47864;52.526;19.672;2023-05-25T07:55:18;154419.53;;;21.62;86.96
61908;BME280;47864;52.526;19.672;2023-05-25T07:57:19;154093.53;;;20.33;88.91
61908;BME280;47864;52.526;19.672;2023-05-25T07:59:21;154013.34;;;20.01;94.42
61908;BME280;47864;52.526;19.672;2023-05-25T08:01:22;154295.97;;;21.13;88.41
61908;BME280;47864;52.526;19.672;2023-05-25T08:03:27;154334.19;;;21.29;87.86
61908;BME280;47864;52.526;19.672;2023-05-25T08:05:48;154060.41;;;20.20;89.08
61908;BME280;47864;52.526;19.672;2023-05-25T08:07:50;154175.03;;;20.65;89.10
61908;BME280;47864;52.526;19.672;2023-05-25T08:09:51;154437.38;;;21.70;84.69
61908;BME280;47864;52.526;19.672;2023-05-25T08:11:53;154575.00;;;22.24;82.36
61908;BME280;47864;52.526;19.672;2023-05-25T08:14:15;154567.38;;;22.21;80.19
61908;BME280;47864;52.526;19.672;2023-05-25T08:16:17;154239.94;;;20.91;84.27
61908;BME280;47864;52.526;19.672;2023-05-25T08:18:19;154295.97;;;21.13;85.91
61908;BME280;47864;52.526;19.672;2023-05-25T08:20:21;154538.03;;;22.10;82.64
61908;BME280;47864;52.526;19.672;2023-05-25T08:22:23;154401.72;;;21.55;80.83
61908;BME280;47864;52.526;19.672;2023-05-25T08:24:24;154195.38;;;20.73;83.46
61908;BME280;47864;52.526;19.672;2023-05-25T08:26:26;154397.88;;;21.54;81.90
61908;BME280;47864;52.526;19.672;2023-05-25T08:28:47;154416.97;;;21.61;80.08
61908;BME280;47864;52.526;19.672;2023-05-25T08:30:49;154530.44;;;22.07;82.86
61908;BME280;47864;52.526;19.672;2023-05-25T08:32:51;154654.03;;;22.56;78.71
61908;BME280;47864;52.526;19.672;2023-05-25T08:34:53;154564.81;;;22.20;79.29
61908;BME280;47864;52.526;19.672;2023-05-25T08:36:57;154562.25;;;22.19;79.85
61908;BME280;47864;52.526;19.672;2023-05-25T08:38:59;154550.81;;;22.15;78.24
61908;BME280;47864;52.526;19.672;2023-05-25T08:41:05;154460.31;;;21.79;78.46
61908;BME280;47864;52.526;19.672;2023-05-25T08:43:08;154498.50;;;21.94;81.41
61908;BME280;47864;52.526;19.672;2023-05-25T08:45:10;154457.75;;;21.78;79.57
61908;BME280;47864;52.526;19.672;2023-05-25T08:47:30;154462.84;;;21.80;80.72
61908;BME280;47864;52.526;19.672;2023-05-25T08:49:37;154460.31;;;21.79;83.20
61908;BME280;47864;52.526;19.672;2023-05-25T08:51:53;154459.03;;;21.78;82.13
61908;BME280;47864;52.526;19.672;2023-05-25T08:53:58;154648.94;;;22.54;80.32
61908;BME280;47864;52.526;19.672;2023-05-25T08:56:18;154671.88;;;22.63;78.38
61908;BME280;47864;52.526;19.672;2023-05-25T08:58:29;154608.16;;;22.37;78.22
61908;BME280;47864;52.526;19.672;2023-05-25T09:00:41;154703.75;;;22.75;76.74
61908;BME280;47864;52.526;19.672;2023-05-25T09:03:05;154847.81;;;23.33;74.68
61908;BME280;47864;52.526;19.672;2023-05-25T09:05:07;154967.72;;;23.80;73.07
61908;BME280;47864;52.526;19.672;2023-05-25T09:07:09;154827.41;;;23.25;73.15
61908;BME280;47864;52.526;19.672;2023-05-25T09:09:12;154909.06;;;23.57;74.25
61908;BME280;47864;52.526;19.672;2023-05-25T09:11:14;154781.50;;;23.06;74.17
61908;BME280;47864;52.526;19.672;2023-05-25T09:13:19;154897.63;;;23.52;71.62
61908;BME280;47864;52.526;19.672;2023-05-25T09:15:23;154958.84;;;23.77;70.34
61908;BME280;47864;52.526;19.672;2023-05-25T09:17:25;154814.69;;;23.20;71.82
61908;BME280;47864;52.526;19.672;2023-05-25T09:19:27;154845.25;;;23.32;72.65
61908;BME280;47864;52.526;19.672;2023-05-25T09:21:28;154785.34;;;23.08;73.96
61908;BME280;47864;52.526;19.672;2023-05-25T09:23:30;154861.88;;;23.38;72.67
61908;BME280;47864;52.526;19.672;2023-05-25T09:25:32;154794.28;;;23.11;73.46
61908;BME280;47864;52.526;19.672;2023-05-25T09:27:34;154896.34;;;23.52;74.27
61908;BME280;47864;52.526;19.672;2023-05-25T09:29:36;154865.66;;;23.40;75.11
61908;BME280;47864;52.526;19.672;2023-05-25T09:31:38;154916.75;;;23.60;75.07
61908;BME280;47864;52.526;19.672;2023-05-25T09:33:39;154696.09;;;22.72;75.87
61908;BME280;47864;52.526;19.672;2023-05-25T09:35:42;154742.00;;;22.91;78.22
61908;BME280;47864;52.526;19.672;2023-05-25T09:37:44;154800.69;;;23.14;75.29
61908;BME280;47864;52.526;19.672;2023-05-25T09:39:46;154708.88;;;22.77;75.43
61908;BME280;47864;52.526;19.672;2023-05-25T09:41:48;154886.06;;;23.48;74.01
61908;BME280;47864;52.526;19.672;2023-05-25T09:43:49;154997.09;;;23.92;74.30
61908;BME280;47864;52.526;19.672;2023-05-25T09:45:54;155018.78;;;24.01;73.15
61908;BME280;47864;52.526;19.672;2023-05-25T09:47:57;154946.09;;;23.72;74.94
61908;BME280;47864;52.526;19.672;2023-05-25T09:49:59;154770.06;;;23.02;77.15
61908;BME280;47864;52.526;19.672;2023-05-25T09:52:01;154779.00;;;23.05;75.87
61908;BME280;47864;52.526;19.672;2023-05-25T09:54:03;154836.38;;;23.28;75.77
61908;BME280;47864;52.526;19.672;2023-05-25T09:56:05;154818.53;;;23.21;76.28
61908;BME280;47864;52.526;19.672;2023-05-25T09:58:06;154771.34;;;23.02;76.27
61908;BME280;47864;52.526;19.672;2023-05-25T10:00:08;154821.06;;;23.22;76.31
61908;BME280;47864;52.526;19.672;2023-05-25T10:02:10;154712.69;;;22.79;77.59
61908;BME280;47864;52.526;19.672;2023-05-25T10:04:15;154643.81;;;22.52;80.93
61908;BME280;47864;52.526;19.672;2023-05-25T10:06:16;154603.03;;;22.35;80.40
61908;BME280;47864;52.526;19.672;2023-05-25T10:08:19;154547.00;;;22.13;80.29
61908;BME280;47864;52.526;19.672;2023-05-25T10:10:20;154443.75;;;21.72;81.54
61908;BME280;47864;52.526;19.672;2023-05-25T10:12:22;154628.53;;;22.46;78.39
61908;BME280;47864;52.526;19.672;2023-05-25T10:14:26;154578.81;;;22.26;76.98
61908;BME280;47864;52.526;19.672;2023-05-25T10:16:48;154550.81;;;22.15;76.21
61908;BME280;47864;52.526;19.672;2023-05-25T10:18:58;154462.84;;;21.80;75.92
61908;BME280;47864;52.526;19.672;2023-05-25T10:21:02;154766.22;;;23.00;71.61
61908;BME280;47864;52.526;19.672;2023-05-25T10:23:13;154814.69;;;23.20;71.26
61908;BME280;47864;52.526;19.672;2023-05-25T10:25:37;154831.25;;;23.26;68.63
61908;BME280;47864;52.526;19.672;2023-05-25T10:27:44;154730.53;;;22.86;68.34
61908;BME280;47864;52.526;19.672;2023-05-25T10:29:47;154625.97;;;22.45;67.78
61908;BME280;47864;52.526;19.672;2023-05-25T10:31:49;154475.56;;;21.85;71.36
61908;BME280;47864;52.526;19.672;2023-05-25T10:33:51;154524.03;;;22.04;68.53